Terminal Aerodrome Forecast
Issued by NWS

Home | Current Version | Previous Version | Text Only | Print | Product List | Glossary On
Versions: 1 2 3 4 5 6 7 8 9 10 11 12 13 14 15 16 17 18 19
000
FTUS44 KMAF 270000 AAA
TAFINK
TAF AMD
KINK 270044Z 2701/2724 26027G35KT P6SM OVC130
     FM270200 27009KT P6SM BKN200
     FM271200 32012KT P6SM OVC035
     FM271600 32021G31KT P6SM BKN040=

USA.gov is the U.S. government's official web portal to all federal, state and local government web resources and services.